sensor_id;sensor_type;location;lat;lon;timestamp;P1;durP1;ratioP1;P2;durP2;ratioP2
17686;SDS011;8962;52.538;13.266;2023-02-28T00:00:36;6.57;;;4.05;;
17686;SDS011;8962;52.538;13.266;2023-02-28T00:03:04;6.38;;;4.10;;
17686;SDS011;8962;52.538;13.266;2023-02-28T00:05:32;9.77;;;4.45;;
17686;SDS011;8962;52.538;13.266;2023-02-28T00:08:01;7.75;;;4.32;;
17686;SDS011;8962;52.538;13.266;2023-02-28T00:10:29;7.57;;;4.20;;
17686;SDS011;8962;52.538;13.266;2023-02-28T00:12:59;7.13;;;4.18;;
17686;SDS011;8962;52.538;13.266;2023-02-28T00:15:27;7.72;;;4.28;;
17686;SDS011;8962;52.538;13.266;2023-02-28T00:17:59;6.40;;;4.28;;
17686;SDS011;8962;52.538;13.266;2023-02-28T00:20:31;8.57;;;4.55;;
17686;SDS011;8962;52.538;13.266;2023-02-28T00:22:58;7.82;;;4.50;;
17686;SDS011;8962;52.538;13.266;2023-02-28T00:25:27;9.75;;;4.88;;
17686;SDS011;8962;52.538;13.266;2023-02-28T00:27:54;9.75;;;4.50;;
17686;SDS011;8962;52.538;13.266;2023-02-28T00:30:22;8.75;;;4.40;;
17686;SDS011;8962;52.538;13.266;2023-02-28T00:32:50;9.18;;;4.50;;
17686;SDS011;8962;52.538;13.266;2023-02-28T00:35:17;9.30;;;5.32;;
17686;SDS011;8962;52.538;13.266;2023-02-28T00:37:45;6.95;;;4.55;;
17686;SDS011;8962;52.538;13.266;2023-02-28T00:40:15;9.00;;;5.68;;
17686;SDS011;8962;52.538;13.266;2023-02-28T00:42:43;6.82;;;4.65;;
17686;SDS011;8962;52.538;13.266;2023-02-28T00:45:10;7.97;;;4.97;;
17686;SDS011;8962;52.538;13.266;2023-02-28T00:47:37;8.43;;;4.88;;
17686;SDS011;8962;52.538;13.266;2023-02-28T00:50:06;9.50;;;5.03;;
17686;SDS011;8962;52.538;13.266;2023-02-28T00:52:35;8.88;;;4.85;;
17686;SDS011;8962;52.538;13.266;2023-02-28T00:55:03;8.05;;;4.95;;
17686;SDS011;8962;52.538;13.266;2023-02-28T00:57:33;8.60;;;4.60;;
17686;SDS011;8962;52.538;13.266;2023-02-28T01:00:00;7.85;;;4.70;;
17686;SDS011;8962;52.538;13.266;2023-02-28T01:02:28;7.18;;;4.60;;
17686;SDS011;8962;52.538;13.266;2023-02-28T01:04:56;11.15;;;5.47;;
17686;SDS011;8962;52.538;13.266;2023-02-28T01:07:24;10.40;;;4.45;;
17686;SDS011;8962;52.538;13.266;2023-02-28T01:09:52;7.70;;;4.82;;
17686;SDS011;8962;52.538;13.266;2023-02-28T01:12:20;10.18;;;4.35;;
17686;SDS011;8962;52.538;13.266;2023-02-28T01:14:48;8.88;;;4.90;;
17686;SDS011;8962;52.538;13.266;2023-02-28T01:17:15;7.57;;;4.60;;
17686;SDS011;8962;52.538;13.266;2023-02-28T01:19:43;12.23;;;5.65;;
17686;SDS011;8962;52.538;13.266;2023-02-28T01:22:10;10.13;;;5.15;;
17686;SDS011;8962;52.538;13.266;2023-02-28T01:24:37;8.70;;;4.82;;
17686;SDS011;8962;52.538;13.266;2023-02-28T01:27:04;7.07;;;4.57;;
17686;SDS011;8962;52.538;13.266;2023-02-28T01:29:31;9.07;;;5.55;;
17686;SDS011;8962;52.538;13.266;2023-02-28T01:32:00;10.45;;;5.20;;
17686;SDS011;8962;52.538;13.266;2023-02-28T01:34:29;10.68;;;5.00;;
17686;SDS011;8962;52.538;13.266;2023-02-28T01:36:58;7.70;;;4.85;;
17686;SDS011;8962;52.538;13.266;2023-02-28T01:39:26;10.20;;;5.40;;
17686;SDS011;8962;52.538;13.266;2023-02-28T01:41:55;8.55;;;5.13;;
17686;SDS011;8962;52.538;13.266;2023-02-28T01:47:32;9.70;;;5.10;;
17686;SDS011;8962;52.538;13.266;2023-02-28T01:50:03;10.00;;;4.90;;
17686;SDS011;8962;52.538;13.266;2023-02-28T01:52:34;7.80;;;4.50;;
17686;SDS011;8962;52.538;13.266;2023-02-28T01:55:02;9.77;;;4.97;;
17686;SDS011;8962;52.538;13.266;2023-02-28T01:57:34;7.95;;;4.75;;
17686;SDS011;8962;52.538;13.266;2023-02-28T02:00:05;8.75;;;4.93;;
17686;SDS011;8962;52.538;13.266;2023-02-28T02:02:40;10.77;;;5.88;;
17686;SDS011;8962;52.538;13.266;2023-02-28T02:05:10;9.45;;;5.43;;
17686;SDS011;8962;52.538;13.266;2023-02-28T02:07:41;9.50;;;4.90;;
17686;SDS011;8962;52.538;13.266;2023-02-28T02:10:13;8.00;;;5.10;;
17686;SDS011;8962;52.538;13.266;2023-02-28T02:12:50;10.30;;;4.90;;
17686;SDS011;8962;52.538;13.266;2023-02-28T02:15:39;8.43;;;5.07;;
17686;SDS011;8962;52.538;13.266;2023-02-28T02:18:14;8.30;;;4.95;;
17686;SDS011;8962;52.538;13.266;2023-02-28T02:24:01;9.85;;;5.55;;
17686;SDS011;8962;52.538;13.266;2023-02-28T02:26:56;8.55;;;4.95;;
17686;SDS011;8962;52.538;13.266;2023-02-28T02:29:55;11.65;;;4.80;;
17686;SDS011;8962;52.538;13.266;2023-02-28T02:36:04;8.57;;;5.30;;
17686;SDS011;8962;52.538;13.266;2023-02-28T02:38:35;14.15;;;6.88;;
17686;SDS011;8962;52.538;13.266;2023-02-28T02:41:08;13.13;;;5.35;;
17686;SDS011;8962;52.538;13.266;2023-02-28T02:43:40;11.60;;;5.65;;
17686;SDS011;8962;52.538;13.266;2023-02-28T02:46:18;8.77;;;4.82;;
17686;SDS011;8962;52.538;13.266;2023-02-28T02:48:49;8.05;;;5.22;;
17686;SDS011;8962;52.538;13.266;2023-02-28T02:51:20;11.55;;;5.30;;
17686;SDS011;8962;52.538;13.266;2023-02-28T02:53:52;10.63;;;5.43;;
17686;SDS011;8962;52.538;13.266;2023-02-28T02:56:25;8.60;;;4.90;;
17686;SDS011;8962;52.538;13.266;2023-02-28T02:58:57;10.85;;;5.70;;
17686;SDS011;8962;52.538;13.266;2023-02-28T03:01:30;10.02;;;5.53;;
17686;SDS011;8962;52.538;13.266;2023-02-28T03:03:59;7.65;;;5.10;;
17686;SDS011;8962;52.538;13.266;2023-02-28T03:06:32;8.63;;;5.20;;
17686;SDS011;8962;52.538;13.266;2023-02-28T03:09:01;10.50;;;5.03;;
17686;SDS011;8962;52.538;13.266;2023-02-28T03:11:30;9.30;;;5.22;;
17686;SDS011;8962;52.538;13.266;2023-02-28T03:17:00;11.40;;;5.40;;
17686;SDS011;8962;52.538;13.266;2023-02-28T03:19:52;12.13;;;5.53;;
17686;SDS011;8962;52.538;13.266;2023-02-28T03:22:36;9.07;;;5.05;;
17686;SDS011;8962;52.538;13.266;2023-02-28T03:25:20;10.35;;;5.07;;
17686;SDS011;8962;52.538;13.266;2023-02-28T03:27:53;9.07;;;5.60;;
17686;SDS011;8962;52.538;13.266;2023-02-28T03:30:27;9.23;;;5.13;;
17686;SDS011;8962;52.538;13.266;2023-02-28T03:33:03;10.23;;;4.88;;
17686;SDS011;8962;52.538;13.266;2023-02-28T03:35:36;12.35;;;5.65;;
17686;SDS011;8962;52.538;13.266;2023-02-28T03:38:11;11.40;;;5.32;;
17686;SDS011;8962;52.538;13.266;2023-02-28T03:40:42;8.30;;;5.30;;
17686;SDS011;8962;52.538;13.266;2023-02-28T03:43:18;9.73;;;5.72;;
17686;SDS011;8962;52.538;13.266;2023-02-28T03:45:50;9.80;;;5.47;;
17686;SDS011;8962;52.538;13.266;2023-02-28T03:48:20;7.78;;;5.03;;
17686;SDS011;8962;52.538;13.266;2023-02-28T03:50:54;11.55;;;5.30;;
17686;SDS011;8962;52.538;13.266;2023-02-28T03:53:27;10.77;;;5.38;;
17686;SDS011;8962;52.538;13.266;2023-02-28T03:55:58;11.32;;;5.65;;
17686;SDS011;8962;52.538;13.266;2023-02-28T03:58:30;12.52;;;5.65;;
17686;SDS011;8962;52.538;13.266;2023-02-28T04:01:03;11.27;;;5.95;;
17686;SDS011;8962;52.538;13.266;2023-02-28T04:03:34;11.30;;;5.72;;
17686;SDS011;8962;52.538;13.266;2023-02-28T04:06:02;10.13;;;5.78;;
17686;SDS011;8962;52.538;13.266;2023-02-28T04:08:34;11.93;;;6.15;;
17686;SDS011;8962;52.538;13.266;2023-02-28T04:11:03;10.52;;;6.20;;
17686;SDS011;8962;52.538;13.266;2023-02-28T04:13:35;13.13;;;5.78;;
17686;SDS011;8962;52.538;13.266;2023-02-28T04:16:06;12.45;;;6.00;;
17686;SDS011;8962;52.538;13.266;2023-02-28T04:18:38;12.50;;;5.90;;
17686;SDS011;8962;52.538;13.266;2023-02-28T04:21:05;12.38;;;5.90;;
17686;SDS011;8962;52.538;13.266;2023-02-28T04:23:37;13.65;;;6.22;;
17686;SDS011;8962;52.538;13.266;2023-02-28T04:26:08;10.90;;;5.53;;
17686;SDS011;8962;52.538;13.266;2023-02-28T04:28:36;11.25;;;5.95;;
17686;SDS011;8962;52.538;13.266;2023-02-28T04:31:05;11.60;;;6.20;;
17686;SDS011;8962;52.538;13.266;2023-02-28T04:33:32;9.80;;;5.85;;
17686;SDS011;8962;52.538;13.266;2023-02-28T04:36:00;13.23;;;6.75;;
17686;SDS011;8962;52.538;13.266;2023-02-28T04:38:31;12.13;;;6.68;;
17686;SDS011;8962;52.538;13.266;2023-02-28T04:41:02;10.35;;;6.57;;
17686;SDS011;8962;52.538;13.266;2023-02-28T04:43:31;14.13;;;7.20;;
17686;SDS011;8962;52.538;13.266;2023-02-28T04:46:03;12.43;;;6.70;;
17686;SDS011;8962;52.538;13.266;2023-02-28T04:48:32;16.38;;;7.45;;
17686;SDS011;8962;52.538;13.266;2023-02-28T04:51:00;14.68;;;6.97;;
17686;SDS011;8962;52.538;13.266;2023-02-28T04:53:30;10.68;;;6.32;;
17686;SDS011;8962;52.538;13.266;2023-02-28T04:56:00;11.85;;;6.68;;
17686;SDS011;8962;52.538;13.266;2023-02-28T04:58:31;15.40;;;7.50;;
17686;SDS011;8962;52.538;13.266;2023-02-28T05:01:04;12.00;;;6.78;;
17686;SDS011;8962;52.538;13.266;2023-02-28T05:03:37;12.52;;;6.78;;
17686;SDS011;8962;52.538;13.266;2023-02-28T05:06:05;15.45;;;6.72;;
17686;SDS011;8962;52.538;13.266;2023-02-28T05:08:38;11.50;;;6.75;;
17686;SDS011;8962;52.538;13.266;2023-02-28T05:11:17;12.27;;;6.35;;
17686;SDS011;8962;52.538;13.266;2023-02-28T05:13:48;13.80;;;6.60;;
17686;SDS011;8962;52.538;13.266;2023-02-28T05:16:17;11.18;;;6.30;;
17686;SDS011;8962;52.538;13.266;2023-02-28T05:18:46;12.98;;;6.53;;
17686;SDS011;8962;52.538;13.266;2023-02-28T05:21:23;14.02;;;6.70;;
17686;SDS011;8962;52.538;13.266;2023-02-28T05:23:52;11.75;;;6.65;;
17686;SDS011;8962;52.538;13.266;2023-02-28T05:26:23;12.85;;;6.55;;
17686;SDS011;8962;52.538;13.266;2023-02-28T05:28:51;13.35;;;6.82;;
17686;SDS011;8962;52.538;13.266;2023-02-28T05:31:18;14.95;;;7.13;;
17686;SDS011;8962;52.538;13.266;2023-02-28T05:33:46;11.25;;;6.80;;
17686;SDS011;8962;52.538;13.266;2023-02-28T05:36:14;12.18;;;6.60;;
17686;SDS011;8962;52.538;13.266;2023-02-28T05:38:43;12.60;;;7.43;;
17686;SDS011;8962;52.538;13.266;2023-02-28T05:41:13;12.13;;;6.55;;
17686;SDS011;8962;52.538;13.266;2023-02-28T05:43:42;13.25;;;7.30;;
17686;SDS011;8962;52.538;13.266;2023-02-28T05:46:11;17.13;;;7.53;;
17686;SDS011;8962;52.538;13.266;2023-02-28T05:48:39;12.07;;;6.78;;
17686;SDS011;8962;52.538;13.266;2023-02-28T05:51:07;11.63;;;7.05;;
17686;SDS011;8962;52.538;13.266;2023-02-28T05:53:35;11.90;;;7.40;;
17686;SDS011;8962;52.538;13.266;2023-02-28T05:56:04;14.25;;;7.05;;
17686;SDS011;8962;52.538;13.266;2023-02-28T05:58:31;14.07;;;7.15;;
17686;SDS011;8962;52.538;13.266;2023-02-28T06:01:18;12.90;;;7.07;;
17686;SDS011;8962;52.538;13.266;2023-02-28T06:03:47;15.35;;;7.22;;
17686;SDS011;8962;52.538;13.266;2023-02-28T06:06:15;12.48;;;7.32;;
17686;SDS011;8962;52.538;13.266;2023-02-28T06:08:43;14.50;;;7.55;;
17686;SDS011;8962;52.538;13.266;2023-02-28T06:11:11;14.02;;;8.00;;
17686;SDS011;8962;52.538;13.266;2023-02-28T06:13:39;13.75;;;8.20;;
17686;SDS011;8962;52.538;13.266;2023-02-28T06:16:08;17.08;;;7.40;;
17686;SDS011;8962;52.538;13.266;2023-02-28T06:18:37;17.08;;;7.70;;
17686;SDS011;8962;52.538;13.266;2023-02-28T06:21:04;12.63;;;7.28;;
17686;SDS011;8962;52.538;13.266;2023-02-28T06:23:31;13.48;;;7.53;;
17686;SDS011;8962;52.538;13.266;2023-02-28T06:25:58;14.52;;;7.82;;
17686;SDS011;8962;52.538;13.266;2023-02-28T06:28:26;12.85;;;7.55;;
17686;SDS011;8962;52.538;13.266;2023-02-28T06:30:55;16.10;;;7.63;;
17686;SDS011;8962;52.538;13.266;2023-02-28T06:33:24;14.73;;;7.50;;
17686;SDS011;8962;52.538;13.266;2023-02-28T06:35:52;15.30;;;8.23;;
17686;SDS011;8962;52.538;13.266;2023-02-28T06:38:20;16.55;;;7.78;;
17686;SDS011;8962;52.538;13.266;2023-02-28T06:40:52;14.70;;;8.27;;
17686;SDS011;8962;52.538;13.266;2023-02-28T06:43:35;20.10;;;8.43;;
17686;SDS011;8962;52.538;13.266;2023-02-28T06:46:06;14.73;;;8.02;;
17686;SDS011;8962;52.538;13.266;2023-02-28T06:48:35;17.83;;;8.15;;
17686;SDS011;8962;52.538;13.266;2023-02-28T06:51:03;19.63;;;8.68;;
17686;SDS011;8962;52.538;13.266;2023-02-28T06:53:31;15.25;;;8.65;;
17686;SDS011;8962;52.538;13.266;2023-02-28T06:55:59;12.77;;;7.78;;
17686;SDS011;8962;52.538;13.266;2023-02-28T06:58:30;16.83;;;8.77;;
17686;SDS011;8962;52.538;13.266;2023-02-28T07:00:58;17.40;;;8.57;;
17686;SDS011;8962;52.538;13.266;2023-02-28T07:03:32;13.60;;;8.07;;
17686;SDS011;8962;52.538;13.266;2023-02-28T07:06:02;16.38;;;8.95;;
17686;SDS011;8962;52.538;13.266;2023-02-28T07:08:32;16.95;;;8.77;;
17686;SDS011;8962;52.538;13.266;2023-02-28T07:11:01;16.80;;;8.57;;
17686;SDS011;8962;52.538;13.266;2023-02-28T07:13:28;16.67;;;8.82;;
17686;SDS011;8962;52.538;13.266;2023-02-28T07:15:58;17.48;;;9.50;;
17686;SDS011;8962;52.538;13.266;2023-02-28T07:18:26;16.55;;;8.55;;
17686;SDS011;8962;52.538;13.266;2023-02-28T07:20:55;18.55;;;8.98;;
17686;SDS011;8962;52.538;13.266;2023-02-28T07:23:22;17.98;;;9.23;;
17686;SDS011;8962;52.538;13.266;2023-02-28T07:25:50;19.92;;;9.70;;
17686;SDS011;8962;52.538;13.266;2023-02-28T07:28:19;21.90;;;9.77;;
17686;SDS011;8962;52.538;13.266;2023-02-28T07:30:46;20.83;;;9.57;;
17686;SDS011;8962;52.538;13.266;2023-02-28T07:33:14;19.00;;;9.80;;
17686;SDS011;8962;52.538;13.266;2023-02-28T07:35:42;19.45;;;9.13;;
17686;SDS011;8962;52.538;13.266;2023-02-28T07:38:10;16.67;;;9.38;;
17686;SDS011;8962;52.538;13.266;2023-02-28T07:40:39;15.48;;;8.95;;
17686;SDS011;8962;52.538;13.266;2023-02-28T07:43:06;15.88;;;8.32;;
17686;SDS011;8962;52.538;13.266;2023-02-28T07:45:33;21.17;;;9.57;;
17686;SDS011;8962;52.538;13.266;2023-02-28T07:48:00;16.58;;;9.35;;
17686;SDS011;8962;52.538;13.266;2023-02-28T07:50:28;20.17;;;10.15;;
17686;SDS011;8962;52.538;13.266;2023-02-28T07:52:56;19.35;;;9.23;;
17686;SDS011;8962;52.538;13.266;2023-02-28T07:55:25;17.65;;;9.68;;
17686;SDS011;8962;52.538;13.266;2023-02-28T07:57:53;21.92;;;11.60;;
17686;SDS011;8962;52.538;13.266;2023-02-28T08:00:22;20.08;;;10.13;;
17686;SDS011;8962;52.538;13.266;2023-02-28T08:02:50;20.98;;;10.70;;
17686;SDS011;8962;52.538;13.266;2023-02-28T08:05:17;17.05;;;9.45;;
17686;SDS011;8962;52.538;13.266;2023-02-28T08:07:45;17.05;;;9.60;;
17686;SDS011;8962;52.538;13.266;2023-02-28T08:10:13;19.30;;;9.90;;
17686;SDS011;8962;52.538;13.266;2023-02-28T08:12:43;23.77;;;12.93;;
17686;SDS011;8962;52.538;13.266;2023-02-28T08:15:10;20.98;;;9.65;;
17686;SDS011;8962;52.538;13.266;2023-02-28T08:17:37;23.25;;;11.43;;
17686;SDS011;8962;52.538;13.266;2023-02-28T08:20:05;17.75;;;9.38;;
17686;SDS011;8962;52.538;13.266;2023-02-28T08:22:35;14.98;;;8.43;;
17686;SDS011;8962;52.538;13.266;2023-02-28T08:25:04;17.23;;;8.70;;
17686;SDS011;8962;52.538;13.266;2023-02-28T08:27:33;17.10;;;9.15;;
17686;SDS011;8962;52.538;13.266;2023-02-28T08:30:02;15.50;;;8.65;;
17686;SDS011;8962;52.538;13.266;2023-02-28T08:32:33;14.88;;;8.18;;
17686;SDS011;8962;52.538;13.266;2023-02-28T08:35:01;15.77;;;8.32;;
17686;SDS011;8962;52.538;13.266;2023-02-28T08:37:30;16.85;;;8.25;;
17686;SDS011;8962;52.538;13.266;2023-02-28T08:39:59;14.98;;;7.82;;
17686;SDS011;8962;52.538;13.266;2023-02-28T08:42:26;10.45;;;5.90;;
17686;SDS011;8962;52.538;13.266;2023-02-28T08:44:55;14.85;;;6.50;;
17686;SDS011;8962;52.538;13.266;2023-02-28T08:47:26;9.57;;;5.93;;
17686;SDS011;8962;52.538;13.266;2023-02-28T08:49:57;15.82;;;6.60;;
17686;SDS011;8962;52.538;13.266;2023-02-28T08:52:24;6.07;;;4.00;;
17686;SDS011;8962;52.538;13.266;2023-02-28T08:54:52;10.85;;;4.30;;
17686;SDS011;8962;52.538;13.266;2023-02-28T08:57:20;5.38;;;3.38;;
17686;SDS011;8962;52.538;13.266;2023-02-28T08:59:48;7.78;;;3.60;;
17686;SDS011;8962;52.538;13.266;2023-02-28T09:02:15;8.55;;;3.63;;
17686;SDS011;8962;52.538;13.266;2023-02-28T09:04:44;7.88;;;3.97;;
17686;SDS011;8962;52.538;13.266;2023-02-28T09:07:11;11.98;;;5.25;;
17686;SDS011;8962;52.538;13.266;2023-02-28T09:09:39;8.50;;;3.75;;
17686;SDS011;8962;52.538;13.266;2023-02-28T09:12:19;10.18;;;4.60;;
17686;SDS011;8962;52.538;13.266;2023-02-28T09:14:46;8.18;;;3.45;;
17686;SDS011;8962;52.538;13.266;2023-02-28T09:17:13;10.52;;;3.60;;
17686;SDS011;8962;52.538;13.266;2023-02-28T09:19:50;7.93;;;3.50;;
17686;SDS011;8962;52.538;13.266;2023-02-28T09:22:18;5.07;;;3.00;;
17686;SDS011;8962;52.538;13.266;2023-02-28T09:24:45;10.90;;;3.78;;
17686;SDS011;8962;52.538;13.266;2023-02-28T09:27:13;8.70;;;4.30;;
17686;SDS011;8962;52.538;13.266;2023-02-28T09:29:41;13.65;;;3.65;;
17686;SDS011;8962;52.538;13.266;2023-02-28T09:32:08;7.90;;;3.15;;
17686;SDS011;8962;52.538;13.266;2023-02-28T09:34:35;8.25;;;4.57;;
17686;SDS011;8962;52.538;13.266;2023-02-28T09:37:03;5.50;;;2.80;;
17686;SDS011;8962;52.538;13.266;2023-02-28T09:39:31;6.30;;;2.75;;
17686;SDS011;8962;52.538;13.266;2023-02-28T09:41:59;7.28;;;3.05;;
17686;SDS011;8962;52.538;13.266;2023-02-28T09:44:29;12.70;;;5.50;;
17686;SDS011;8962;52.538;13.266;2023-02-28T09:47:00;8.10;;;3.70;;
17686;SDS011;8962;52.538;13.266;2023-02-28T09:49:37;6.57;;;2.78;;
17686;SDS011;8962;52.538;13.266;2023-02-28T09:52:10;7.80;;;3.17;;
17686;SDS011;8962;52.538;13.266;2023-02-28T09:54:41;8.00;;;3.25;;
17686;SDS011;8962;52.538;13.266;2023-02-28T09:57:14;8.10;;;3.72;;
17686;SDS011;8962;52.538;13.266;2023-02-28T09:59:49;5.20;;;2.92;;
17686;SDS011;8962;52.538;13.266;2023-02-28T10:05:33;9.63;;;3.75;;
17686;SDS011;8962;52.538;13.266;2023-02-28T10:08:09;7.80;;;3.75;;
17686;SDS011;8962;52.538;13.266;2023-02-28T10:10:47;4.50;;;2.80;;
17686;SDS011;8962;52.538;13.266;2023-02-28T10:13:20;6.32;;;2.65;;
17686;SDS011;8962;52.538;13.266;2023-02-28T10:15:55;5.35;;;2.78;;
17686;SDS011;8962;52.538;13.266;2023-02-28T10:18:25;9.43;;;4.28;;
17686;SDS011;8962;52.538;13.266;2023-02-28T10:21:09;6.63;;;4.13;;
17686;SDS011;8962;52.538;13.266;2023-02-28T10:23:47;5.00;;;2.50;;
17686;SDS011;8962;52.538;13.266;2023-02-28T10:26:18;6.85;;;3.38;;
17686;SDS011;8962;52.538;13.266;2023-02-28T10:28:45;6.00;;;3.63;;
17686;SDS011;8962;52.538;13.266;2023-02-28T10:31:14;8.60;;;4.53;;
17686;SDS011;8962;52.538;13.266;2023-02-28T10:33:45;5.97;;;3.15;;
17686;SDS011;8962;52.538;13.266;2023-02-28T10:36:14;8.60;;;3.90;;
17686;SDS011;8962;52.538;13.266;2023-02-28T10:38:45;8.40;;;3.78;;
17686;SDS011;8962;52.538;13.266;2023-02-28T10:41:15;3.90;;;2.45;;
17686;SDS011;8962;52.538;13.266;2023-02-28T10:44:11;5.25;;;3.10;;
17686;SDS011;8962;52.538;13.266;2023-02-28T10:46:41;7.35;;;3.15;;
17686;SDS011;8962;52.538;13.266;2023-02-28T10:49:12;4.57;;;2.92;;
17686;SDS011;8962;52.538;13.266;2023-02-28T10:51:43;8.40;;;2.85;;
17686;SDS011;8962;52.538;13.266;2023-02-28T10:54:18;6.57;;;3.47;;
17686;SDS011;8962;52.538;13.266;2023-02-28T10:59:34;6.25;;;3.10;;
17686;SDS011;8962;52.538;13.266;2023-02-28T11:02:01;4.55;;;2.70;;
17686;SDS011;8962;52.538;13.266;2023-02-28T11:04:53;4.72;;;2.65;;
17686;SDS011;8962;52.538;13.266;2023-02-28T11:07:22;9.10;;;3.30;;
17686;SDS011;8962;52.538;13.266;2023-02-28T11:09:54;10.77;;;3.67;;
17686;SDS011;8962;52.538;13.266;2023-02-28T11:12:25;11.32;;;4.78;;
17686;SDS011;8962;52.538;13.266;2023-02-28T11:14:56;7.57;;;3.15;;
17686;SDS011;8962;52.538;13.266;2023-02-28T11:17:26;6.30;;;2.60;;
17686;SDS011;8962;52.538;13.266;2023-02-28T11:19:55;12.55;;;3.80;;
17686;SDS011;8962;52.538;13.266;2023-02-28T11:22:28;4.63;;;2.67;;
17686;SDS011;8962;52.538;13.266;2023-02-28T11:25:03;5.55;;;3.45;;
17686;SDS011;8962;52.538;13.266;2023-02-28T11:27:46;7.68;;;3.35;;
17686;SDS011;8962;52.538;13.266;2023-02-28T11:30:24;7.97;;;2.97;;
17686;SDS011;8962;52.538;13.266;2023-02-28T11:32:57;7.95;;;3.22;;
17686;SDS011;8962;52.538;13.266;2023-02-28T11:35:26;8.15;;;2.78;;
17686;SDS011;8962;52.538;13.266;2023-02-28T11:37:56;6.68;;;3.53;;
17686;SDS011;8962;52.538;13.266;2023-02-28T11:40:28;8.80;;;2.72;;
17686;SDS011;8962;52.538;13.266;2023-02-28T11:43:07;7.15;;;3.38;;
17686;SDS011;8962;52.538;13.266;2023-02-28T11:45:50;6.18;;;2.60;;
17686;SDS011;8962;52.538;13.266;2023-02-28T11:48:27;10.98;;;4.13;;
17686;SDS011;8962;52.538;13.266;2023-02-28T11:51:06;3.78;;;2.47;;
17686;SDS011;8962;52.538;13.266;2023-02-28T11:53:49;5.88;;;2.90;;
17686;SDS011;8962;52.538;13.266;2023-02-28T11:56:29;4.97;;;2.53;;
17686;SDS011;8962;52.538;13.266;2023-02-28T11:59:02;6.25;;;2.50;;
17686;SDS011;8962;52.538;13.266;2023-02-28T12:02:00;2.97;;;2.20;;
17686;SDS011;8962;52.538;13.266;2023-02-28T12:04:46;4.07;;;2.50;;
17686;SDS011;8962;52.538;13.266;2023-02-28T12:07:22;4.45;;;2.92;;
17686;SDS011;8962;52.538;13.266;2023-02-28T12:09:57;15.82;;;6.05;;
17686;SDS011;8962;52.538;13.266;2023-02-28T12:12:36;11.10;;;4.05;;
17686;SDS011;8962;52.538;13.266;2023-02-28T12:15:20;5.50;;;3.30;;
17686;SDS011;8962;52.538;13.266;2023-02-28T12:18:13;5.80;;;3.15;;
17686;SDS011;8962;52.538;13.266;2023-02-28T12:20:56;5.40;;;2.75;;
17686;SDS011;8962;52.538;13.266;2023-02-28T12:23:43;4.65;;;2.63;;
17686;SDS011;8962;52.538;13.266;2023-02-28T12:26:23;5.93;;;2.70;;
17686;SDS011;8962;52.538;13.266;2023-02-28T12:29:01;4.63;;;2.63;;
17686;SDS011;8962;52.538;13.266;2023-02-28T12:31:33;4.53;;;2.83;;
17686;SDS011;8962;52.538;13.266;2023-02-28T12:34:05;6.20;;;3.20;;
17686;SDS011;8962;52.538;13.266;2023-02-28T12:36:39;8.15;;;4.30;;
17686;SDS011;8962;52.538;13.266;2023-02-28T12:39:12;6.00;;;3.22;;
17686;SDS011;8962;52.538;13.266;2023-02-28T12:41:45;5.35;;;3.42;;
17686;SDS011;8962;52.538;13.266;2023-02-28T12:44:17;6.25;;;4.00;;
17686;SDS011;8962;52.538;13.266;2023-02-28T12:46:50;3.50;;;2.90;;
17686;SDS011;8962;52.538;13.266;2023-02-28T12:49:21;5.63;;;3.30;;
17686;SDS011;8962;52.538;13.266;2023-02-28T12:51:55;6.07;;;3.55;;
17686;SDS011;8962;52.538;13.266;2023-02-28T12:54:25;8.43;;;3.33;;
17686;SDS011;8962;52.538;13.266;2023-02-28T12:57:02;7.38;;;4.50;;
17686;SDS011;8962;52.538;13.266;2023-02-28T12:59:39;4.35;;;3.17;;
17686;SDS011;8962;52.538;13.266;2023-02-28T13:02:24;4.80;;;3.28;;
17686;SDS011;8962;52.538;13.266;2023-02-28T13:05:18;5.90;;;3.30;;
17686;SDS011;8962;52.538;13.266;2023-02-28T13:07:59;5.50;;;3.35;;
17686;SDS011;8962;52.538;13.266;2023-02-28T13:10:44;4.18;;;2.95;;
17686;SDS011;8962;52.538;13.266;2023-02-28T13:13:16;5.80;;;3.40;;
17686;SDS011;8962;52.538;13.266;2023-02-28T13:16:00;4.38;;;3.33;;
17686;SDS011;8962;52.538;13.266;2023-02-28T13:18:31;6.90;;;3.17;;
17686;SDS011;8962;52.538;13.266;2023-02-28T13:21:03;4.97;;;3.45;;
17686;SDS011;8962;52.538;13.266;2023-02-28T13:23:39;4.78;;;3.33;;
17686;SDS011;8962;52.538;13.266;2023-02-28T13:26:22;6.15;;;3.30;;
17686;SDS011;8962;52.538;13.266;2023-02-28T13:38:24;9.45;;;3.75;;
17686;SDS011;8962;52.538;13.266;2023-02-28T13:44:04;6.97;;;3.80;;
17686;SDS011;8962;52.538;13.266;2023-02-28T13:46:35;6.63;;;3.20;;
17686;SDS011;8962;52.538;13.266;2023-02-28T13:49:24;3.85;;;3.10;;
17686;SDS011;8962;52.538;13.266;2023-02-28T13:51:53;5.55;;;3.67;;
17686;SDS011;8962;52.538;13.266;2023-02-28T13:54:32;6.85;;;3.67;;
17686;SDS011;8962;52.538;13.266;2023-02-28T13:57:12;5.55;;;3.45;;
17686;SDS011;8962;52.538;13.266;2023-02-28T13:59:54;6.38;;;3.10;;
17686;SDS011;8962;52.538;13.266;2023-02-28T14:02:45;5.72;;;3.88;;
17686;SDS011;8962;52.538;13.266;2023-02-28T14:05:36;4.32;;;3.55;;
17686;SDS011;8962;52.538;13.266;2023-02-28T14:08:05;5.13;;;3.55;;
17686;SDS011;8962;52.538;13.266;2023-02-28T14:10:40;4.50;;;3.33;;
17686;SDS011;8962;52.538;13.266;2023-02-28T14:16:12;5.85;;;3.53;;
17686;SDS011;8962;52.538;13.266;2023-02-28T14:18:42;7.47;;;3.35;;
17686;SDS011;8962;52.538;13.266;2023-02-28T14:21:20;6.20;;;3.67;;
17686;SDS011;8962;52.538;13.266;2023-02-28T14:27:09;5.22;;;3.33;;
17686;SDS011;8962;52.538;13.266;2023-02-28T14:32:54;7.50;;;4.10;;
17686;SDS011;8962;52.538;13.266;2023-02-28T14:35:40;7.10;;;4.00;;
17686;SDS011;8962;52.538;13.266;2023-02-28T14:38:20;6.95;;;3.40;;
17686;SDS011;8962;52.538;13.266;2023-02-28T14:40:53;5.88;;;3.50;;
17686;SDS011;8962;52.538;13.266;2023-02-28T14:43:30;8.57;;;3.60;;
17686;SDS011;8962;52.538;13.266;2023-02-28T14:45:58;7.63;;;3.85;;
17686;SDS011;8962;52.538;13.266;2023-02-28T14:48:27;5.95;;;3.63;;
17686;SDS011;8962;52.538;13.266;2023-02-28T14:50:55;6.03;;;3.90;;
17686;SDS011;8962;52.538;13.266;2023-02-28T14:53:27;6.85;;;3.70;;
17686;SDS011;8962;52.538;13.266;2023-02-28T14:55:56;7.30;;;4.38;;
17686;SDS011;8962;52.538;13.266;2023-02-28T14:58:26;7.82;;;4.10;;
17686;SDS011;8962;52.538;13.266;2023-02-28T15:00:54;6.43;;;3.17;;
17686;SDS011;8962;52.538;13.266;2023-02-28T15:03:24;6.75;;;3.45;;
17686;SDS011;8962;52.538;13.266;2023-02-28T15:05:57;6.47;;;3.33;;
17686;SDS011;8962;52.538;13.266;2023-02-28T15:08:28;5.82;;;3.53;;
17686;SDS011;8962;52.538;13.266;2023-02-28T15:11:00;5.50;;;3.03;;
17686;SDS011;8962;52.538;13.266;2023-02-28T15:13:33;7.35;;;3.35;;
17686;SDS011;8962;52.538;13.266;2023-02-28T15:16:03;6.75;;;3.60;;
17686;SDS011;8962;52.538;13.266;2023-02-28T15:18:38;5.95;;;3.30;;
17686;SDS011;8962;52.538;13.266;2023-02-28T15:21:15;5.40;;;3.10;;
17686;SDS011;8962;52.538;13.266;2023-02-28T15:23:46;5.97;;;3.78;;
17686;SDS011;8962;52.538;13.266;2023-02-28T15:26:19;6.25;;;3.55;;
17686;SDS011;8962;52.538;13.266;2023-02-28T15:28:55;7.82;;;3.22;;
17686;SDS011;8962;52.538;13.266;2023-02-28T15:31:26;6.50;;;3.33;;
17686;SDS011;8962;52.538;13.266;2023-02-28T15:33:56;7.03;;;3.45;;
17686;SDS011;8962;52.538;13.266;2023-02-28T15:36:25;7.88;;;3.40;;
17686;SDS011;8962;52.538;13.266;2023-02-28T15:38:55;5.78;;;3.20;;
17686;SDS011;8962;52.538;13.266;2023-02-28T15:41:26;4.82;;;2.83;;
17686;SDS011;8962;52.538;13.266;2023-02-28T15:44:17;5.63;;;3.28;;
17686;SDS011;8962;52.538;13.266;2023-02-28T15:46:55;10.57;;;3.65;;
17686;SDS011;8962;52.538;13.266;2023-02-28T15:49:37;7.07;;;3.65;;